Flight Track Log - Related Links

Times and Time Zones

All times are in EDT time to prevent confusion due to time zone crossing. See the ASQ5958 flight status page for this flight to view local times or setup timezone preferences in your user account.

Time Position Orientation Groundspeed Altitude Reporting Facility
EDT Latitude Longitude Course Direction KTS MPH feet Rate Location/Type
Thu 12:27:02 PM 43.1067 -76.0978 75° East 160 184 1,000  Level Boston Center
Thu 12:27:38 PM 43.1142 -76.0583 75° East 174 200 2,300 1,979 Climbing Boston Center
Thu 12:28:39 PM 43.1594 -76.0753 345° North 247 284 4,200 1,789 Climbing Boston Center
Thu 12:29:32 PM 43.1608 -76.1636 271° West 261 300 5,700 2,331 Climbing Boston Center
Thu 12:30:40 PM 43.1608 -76.2833 270° West 290 334 8,900 2,047 Climbing Boston Center
Thu 12:31:41 PM 43.1611 -76.4000 270° West 316 364 10,100 635 Climbing Boston Center
Thu 12:32:24 PM 43.1614 -76.4986 270° West 433 498 10,000 583 Descending Cleveland Center
Thu 12:33:24 PM 43.1619 -76.6381 270° West 397 457 11,100 1,200 Climbing Cleveland Center
Thu 12:34:24 PM 43.1600 -76.7664 269° West 381 438 12,400 1,650 Climbing Cleveland Center
Thu 12:35:24 PM 43.1611 -76.9286 271° West 387 445 14,400 1,800 Climbing Cleveland Center
Thu 12:36:24 PM 43.1614 -77.0736 270° West 387 445 16,000 1,600 Climbing Cleveland Center
Thu 12:37:24 PM 43.1658 -77.2186 272° West 387 445 17,600 1,350 Climbing Cleveland Center
Thu 12:38:24 PM 43.1719 -77.3606 273° West 382 440 18,700 1,300 Climbing Cleveland Center
Thu 12:39:24 PM 43.1781 -77.5114 273° West 387 445 20,200 1,550 Climbing Cleveland Center
Thu 12:40:24 PM 43.1797 -77.6564 271° West 387 445 21,800 1,500 Climbing Cleveland Center
Thu 12:41:24 PM 43.1856 -77.8042 273° West 387 445 23,200 1,350 Climbing Cleveland Center
Thu 12:42:24 PM 43.1933 -77.9578 274° West 387 445 24,500 1,200 Climbing Cleveland Center
Thu 12:43:24 PM 43.1986 -78.1083 273° West 392 451 25,600 1,150 Climbing Cleveland Center
Thu 12:44:24 PM 43.2081 -78.2589 275° West 397 457 26,800 1,150 Climbing Cleveland Center
Thu 12:45:24 PM 43.2358 -78.4033 285° West 402 463 27,900 1,100 Climbing Cleveland Center
Thu 12:46:24 PM 43.2614 -78.5536 283° West 407 468 29,000 1,150 Climbing Cleveland Center
Thu 12:47:24 PM 43.2869 -78.7039 283° West 407 468 30,200 1,150 Climbing Cleveland Center
Thu 12:48:24 PM 43.3100 -78.8514 282° West 412 474 31,300 1,179 Climbing Cleveland Center
Thu 12:49:16 PM 43.2833 -78.9667 252° West 400 460 32,400 1,179 Climbing Toronto Center
Thu 12:50:16 PM 43.2833 -79.1000 270° West 400 460 33,500 1,150 Climbing Toronto Center
Thu 12:51:16 PM 43.2667 -79.2667 262° West 400 460 34,700 1,150 Climbing Toronto Center
Thu 12:52:16 PM 43.2500 -79.4000 260° West 400 460 35,800 650 Climbing Toronto Center
Thu 12:53:16 PM 43.2333 -79.5667 262° West 400 460 36,000 100 Climbing Toronto Center
Thu 12:54:16 PM 43.2167 -79.7167 261° West 420 483 36,000  Level Toronto Center
Thu 12:55:16 PM 43.2000 -79.8833 262° West 430 495 36,000  Level Toronto Center
Thu 12:57:16 PM 43.1500 -80.2000 258° West 430 495 36,000  Level Toronto Center
Thu 12:58:16 PM 43.1333 -80.3667 262° West 430 495 36,000  Level Toronto Center
Thu 12:59:16 PM 43.1000 -80.5167 253° West 430 495 36,000  Level Toronto Center
Thu 01:00:16 PM 43.0833 -80.6833 262° West 430 495 36,000  Level Toronto Center
Thu 01:01:16 PM 43.0500 -80.8500 255° West 420 483 36,000  Level Toronto Center
Thu 01:02:16 PM 43.0500 -81.0000 270° West 430 495 36,000  Level Toronto Center
Thu 01:03:16 PM 43.0333 -81.1667 262° West 430 495 36,000  Level Toronto Center
Thu 01:04:16 PM 43.0333 -81.3167 270° West 430 495 36,000  Level Toronto Center
Thu 01:05:16 PM 43.0333 -81.4833 270° West 430 495 36,000  Level Toronto Center
Thu 01:06:16 PM 43.0333 -81.6667 270° West 430 495 36,000  Level Toronto Center
Thu 01:07:16 PM 43.0333 -81.8000 270° West 420 483 36,000  Level Toronto Center
Thu 01:08:16 PM 43.0167 -81.9833 263° West 420 483 36,000  Level Toronto Center
Thu 01:09:16 PM 43.0167 -82.1333 270° West 420 483 36,000  Level Toronto Center
Thu 01:10:16 PM 43.0167 -82.3000 270° West 420 483 36,000  Level Toronto Center
Thu 01:11:16 PM 43.0167 -82.4333 270° West 410 472 36,000  Level Toronto Center
Thu 01:12:23 PM 43.0169 -82.6389 270° West 421 484 36,000 -520 Level Cleveland Center
Thu 01:13:23 PM 43.0161 -82.7981 270° West 421 484 34,900 -1,150 Descending Cleveland Center
Thu 01:14:23 PM 43.0172 -82.9600 271° West 421 484 33,700 -1,200 Descending Cleveland Center
Thu 01:15:23 PM 43.0158 -83.1189 269° West 421 484 32,500 -850 Descending Cleveland Center
Thu 01:16:23 PM 43.0122 -83.2833 268° West 426 490 32,000 -250 Descending Cleveland Center
Thu 01:17:23 PM 43.0061 -83.4450 267° West 426 490 32,000  Level Cleveland Center
Thu 01:18:23 PM 42.9978 -83.6094 266° West 432 497 32,000  Level Cleveland Center
Thu 01:19:23 PM 42.9892 -83.7792 266° West 437 503 32,000  Level Cleveland Center
Thu 01:20:23 PM 42.9742 -83.9403 263° West 442 509 32,000  Level Cleveland Center
Thu 01:21:23 PM 42.9547 -84.0981 260° West 437 503 32,000  Level Cleveland Center
Thu 01:22:23 PM 42.9353 -84.2558 260° West 432 497 32,000  Level Cleveland Center
Thu 01:23:45 PM 42.9156 -84.4483 262° West 418 481 32,000  Level Chicago Center
Thu 01:24:47 PM 42.8986 -84.6036 262° West 417 480 32,000  Level Chicago Center
Thu 01:25:49 PM 42.8808 -84.7631 261° West 422 486 32,000  Level Chicago Center
Thu 01:26:51 PM 42.8606 -84.9558 262° West 428 493 32,000  Level Chicago Center
Thu 01:27:53 PM 42.8461 -85.1192 263° West 433 498 32,000  Level Chicago Center
Thu 01:28:55 PM 42.8236 -85.2792 259° West 431 496 32,000  Level Chicago Center
Thu 01:29:57 PM 42.7967 -85.4372 257° West 429 494 32,000 -435 Level Chicago Center
Thu 01:30:59 PM 42.7681 -85.5933 256° West 425 489 31,100 -1,258 Descending Chicago Center
Thu 01:32:01 PM 42.7433 -85.7478 258° West 418 481 29,400 -2,160 Descending Chicago Center
Thu 01:33:04 PM 42.7172 -85.9031 257° West 419 482 26,600 -3,072 Descending Chicago Center
Thu 01:34:06 PM 42.6850 -86.0953 257° West 430 495 23,000 -2,952 Descending Chicago Center
Thu 01:35:08 PM 42.6528 -86.2533 255° West 431 496 20,500 -1,548 Descending Chicago Center
Thu 01:36:10 PM 42.6203 -86.4036 254° West 418 481 19,800 -871 Descending Chicago Center
Thu 01:37:12 PM 42.5903 -86.5519 255° West 408 470 18,700 -1,016 Descending Chicago Center
Thu 01:38:14 PM 42.5633 -86.7117 257° West 393 452 17,700 -871 Descending Chicago Center
Thu 01:39:16 PM 42.5331 -86.8547 254° West 397 457 16,900 -774 Descending Chicago Center
Thu 01:40:18 PM 42.5008 -86.9817 251° West 398 458 16,100 -871 Descending Chicago Center
Thu 01:41:20 PM 42.4528 -87.1408 248° West 381 438 15,100 -1,065 Descending Chicago Center
Thu 01:42:22 PM 42.4164 -87.2686 249° West 367 422 13,900 -1,887 Descending Chicago Center
Thu 01:43:24 PM 42.3814 -87.4003 250° West 347 399 11,200 -1,887 Descending Chicago Center
Thu 01:44:26 PM 42.3483 -87.5208 250° West 345 397 10,000 -581 Descending Chicago Center
Thu 01:45:28 PM 42.2925 -87.6153 231° Southwest 335 386 10,000  Level Chicago Center
Thu 01:46:30 PM 42.2117 -87.6744 208° Southwest 330 380 10,000  Level Chicago Center
Thu 01:47:32 PM 42.1325 -87.7222 204° Southwest 312 359 10,000 -527 Level Chicago Center
Thu 01:48:01 PM 42.0833 -87.7333 190° South 258 297 9,200 -1,348 Descending Chicago TRACON
Thu 01:49:01 PM 42.0167 -87.7667 200° South 269 310 8,000 -950 Descending Chicago TRACON
Thu 01:50:01 PM 41.9667 -87.8000 206° Southwest 221 254 7,300 -496 Descending Chicago TRACON
Thu 01:51:02 PM 41.9000 -87.8167 191° South 197 227 7,000 -157 Descending Chicago TRACON
Thu 01:51:56 PM 41.8667 -87.8667 228° Southwest 193 222 7,000 53 Level Chicago TRACON
Thu 01:52:56 PM 41.8333 -87.9167 228° Southwest 188 216 7,100  Climbing Chicago TRACON
Thu 01:53:44 PM 41.8006 -87.9494 217° Southwest 188 216 7,000 -545 Descending Chicago Center
Thu 01:54:46 PM 41.7611 -87.9975 222° Southwest 190 219 6,100 -1,065 Descending Chicago Center
Thu 01:55:48 PM 41.7664 -88.0561 277° West 200 230 4,800 -1,016 Descending Chicago Center
Thu 01:56:50 PM 41.8186 -88.0547 North 195 224 4,000 -774 Descending Chicago Center
Thu 01:57:52 PM 41.8589 -88.0117 39° Northeast 191 220 3,200 -871 Descending Chicago Center
Thu 01:58:54 PM 41.8972 -87.9656 42° Northeast 188 216 2,200 -919 Descending Chicago Center
Thu 01:59:56 PM 41.9286 -87.9283 41° Northeast 144 166 1,300 -435 Descending Chicago Center
Thu 02:00:58 PM 41.9522 -87.9025 39° Northeast 138 159 1,300  Level Chicago Center
Thu 02:03:00 PM 41.9667 -87.9000 180° South  Level FlightAware Approximate

Login

Don't have an account? Register now (free) for customized features, flight alerts, and more!